Avalon — PBSF — position and weather

sailwx.info

Track history (hours):
 
Tides and Currents Weather Stations Pressure Air Temp Water Temp Dewpoint Dewpoint Depression Visibility Wind Speed Wind Dir Waves Ship Positions

Avalon

Last reported at 2016-Jul-01 03:30 UTC. Time now 2016-Jul-01 13:33 UTC.
Position N 55°26' E 016°02'.

Length 89 m; draft 3.3 m.

Type: Cargo ship. MMSI: 246578000.

Date/timePositionNaut miles runAvg speedWind from/ knotsBaromVisibWave heightAir tempDewpointWater temp
2016-Jul-01 03:30N 55°26' E 016°02'1111.3
2016-Jul-01 02:33N 55°17' E 015°50'1111.3
2016-Jul-01 01:33N 55°08' E 015°39'1111.0
2016-Jul-01 00:33N 54°59' E 015°28'1110.9
2016-Jun-30 23:31N 54°50' E 015°17'70 9.6
2016-Jun-30 16:16N 53°48' E 014°21'811.0
2016-Jun-30 15:33N 53°42' E 014°29'1010.0
2016-Jun-30 14:33N 53°33' E 014°37'7 6.7
2016-Jun-30 13:31N 53°26' E 014°35'0 0.0
2016-Jun-30 12:31N 53°26' E 014°35'0 0.0
2016-Jun-30 11:31N 53°26' E 014°35'0 0.0
2016-Jun-30 10:31N 53°26' E 014°35'0 0.0
2016-Jun-30 09:31N 53°26' E 014°35'0 0.0
2016-Jun-30 08:31N 53°26' E 014°35'0 0.0
2016-Jun-30 07:31N 53°26' E 014°35'0 0.0
2016-Jun-30 06:31N 53°26' E 014°35'0 0.0
2016-Jun-30 05:31N 53°26' E 014°35'0 0.0
2016-Jun-30 04:28N 53°26' E 014°35'0 0.0
2016-Jun-30 03:31N 53°26' E 014°35'0 0.0
2016-Jun-30 02:31N 53°26' E 014°35'0 0.0
2016-Jun-30 01:31N 53°26' E 014°35'0 0.0
2016-Jun-30 00:31N 53°26' E 014°35'0 0.0
2016-Jun-29 23:31N 53°26' E 014°35'0 0.0
2016-Jun-29 22:31N 53°26' E 014°35'0 0.0
2016-Jun-29 21:31N 53°26' E 014°35'0 0.0
2016-Jun-29 20:31N 53°26' E 014°35'0 0.0
2016-Jun-29 19:31N 53°26' E 014°35'0 0.0
2016-Jun-29 18:31N 53°26' E 014°35'0 0.0
2016-Jun-29 17:31N 53°26' E 014°35'0 0.0
2016-Jun-29 16:31N 53°26' E 014°35'0 0.0
2016-Jun-29 15:31N 53°26' E 014°35'0 0.0
2016-Jun-29 14:31N 53°26' E 014°35'0 0.0
2016-Jun-29 13:31N 53°26' E 014°35'0 0.3
2016-Jun-29 12:33N 53°26' E 014°35'8 8.1
2016-Jun-29 11:33N 53°34' E 014°36'10 9.6
2016-Jun-29 10:33N 53°43' E 014°28'58 9.3
2016-Jun-29 04:22N 54°34' E 013°43'1810.2
2016-Jun-29 02:33N 54°50' E 013°28'1410.6
2016-Jun-29 01:14N 55°03' E 013°16'710.7
2016-Jun-29 00:33N 55°07' E 013°06'1110.7
2016-Jun-28 23:33N 55°15' E 012°52'10 9.7
2016-Jun-28 22:33N 55°20' E 012°38'1110.6
2016-Jun-28 21:33N 55°30' E 012°41'1110.8
2016-Jun-28 20:33N 55°41' E 012°41'1110.7
2016-Jun-28 19:33N 55°52' E 012°40'1010.3
2016-Jun-28 18:33N 56°02' E 012°38'1110.6
2016-Jun-28 17:33N 56°10' E 012°25'2110.6
2016-Jun-28 15:32N 56°31' E 012°34'1110.7
2016-Jun-28 14:32N 56°38' E 012°49'2 0.9
2016-Jun-28 12:08N 56°39' E 012°52'0 0.0
2016-Jun-28 11:32N 56°39' E 012°52'0 0.0
2016-Jun-28 10:20N 56°39' E 012°52'0 0.0
2016-Jun-28 09:26N 56°39' E 012°52'0 0.0
2016-Jun-28 08:32N 56°39' E 012°52'0 0.0
2016-Jun-28 06:08N 56°39' E 012°52'0 0.0
2016-Jun-28 04:20N 56°39' E 012°52'0 0.0
2016-Jun-28 02:20N 56°39' E 012°52'0 0.0
2016-Jun-28 01:26N 56°39' E 012°52'0 0.0
2016-Jun-28 00:14N 56°39' E 012°52'0 0.0
2016-Jun-27 23:32N 56°39' E 012°52'0 0.0
2016-Jun-27 22:32N 56°39' E 012°52'0 0.0
2016-Jun-27 21:32N 56°39' E 012°52'0 0.0
2016-Jun-27 20:20N 56°39' E 012°52'0 0.0
2016-Jun-27 19:26N 56°39' E 012°52'0 0.0
2016-Jun-27 18:32N 56°39' E 012°52'0 0.0
2016-Jun-27 17:32N 56°39' E 012°52'0 0.0
2016-Jun-27 16:32N 56°39' E 012°52'0 0.0
2016-Jun-27 13:32N 56°39' E 012°52'0 0.0
2016-Jun-27 12:08N 56°39' E 012°52'0 0.0
2016-Jun-27 11:14N 56°39' E 012°52'0 0.0
2016-Jun-27 09:27N 56°39' E 012°52'3 3.7
2016-Jun-27 08:33N 56°37' E 012°47'9 9.1
2016-Jun-27 07:33N 56°41' E 012°32'9 9.4
2016-Jun-27 06:33N 56°47' E 012°19'9 8.8
2016-Jun-27 05:33N 56°54' E 012°08'9 9.3
2016-Jun-27 04:33N 57°00' E 011°56'9 9.3
2016-Jun-27 03:33N 57°05' E 011°42'9 8.6
2016-Jun-27 02:33N 57°12' E 011°33'9 9.5
2016-Jun-27 01:33N 57°21' E 011°28'9 9.1
2016-Jun-27 00:33N 57°29' E 011°20'1010.0
2016-Jun-26 23:33N 57°36' E 011°06'10 9.8
2016-Jun-26 22:33N 57°42' E 010°52'23 9.7
2016-Jun-26 20:09N 57°41' E 010°09'259 9.0
2016-Jun-25 15:28N 54°18' E 005°20'8 9.2
2016-Jun-25 14:33N 54°11' E 005°13'1010.0
2016-Jun-25 13:33N 54°02' E 005°06'1010.2
2016-Jun-25 12:33N 53°52' E 004°60'1110.5
2016-Jun-25 11:28N 53°42' E 004°53'3311.4
2016-Jun-25 08:33N 53°11' E 004°33'1111.4
2016-Jun-25 07:33N 52°59' E 004°32'1212.0
2016-Jun-25 06:33N 52°47' E 004°31'1211.6
2016-Jun-25 05:33N 52°36' E 004°31'8 8.1
2016-Jun-25 04:34N 52°28' E 004°36'1 1.2
2016-Jun-25 03:33N 52°28' E 004°38'0 0.0
2016-Jun-25 02:32N 52°28' E 004°38'0 0.0
2016-Jun-25 01:32N 52°28' E 004°38'0 0.0
2016-Jun-25 00:32N 52°28' E 004°38'0 0.0
2016-Jun-24 23:32N 52°28' E 004°38'0 0.0
2016-Jun-24 22:32N 52°28' E 004°38'0 0.0
2016-Jun-24 21:32N 52°28' E 004°38'0 0.0
2016-Jun-24 20:32N 52°28' E 004°38'0 0.0
2016-Jun-24 19:32N 52°28' E 004°38'0 0.0
2016-Jun-24 18:32N 52°28' E 004°38'0 0.0
2016-Jun-24 17:32N 52°28' E 004°38'0 0.0
2016-Jun-24 16:32N 52°28' E 004°38'0 0.0
2016-Jun-24 15:32N 52°28' E 004°38'0 0.0
2016-Jun-24 14:32N 52°28' E 004°38'0 0.0
2016-Jun-24 13:32N 52°28' E 004°38'0 0.0
2016-Jun-24 12:32N 52°28' E 004°38'0 0.0
2016-Jun-24 11:32N 52°28' E 004°38'0 0.0
2016-Jun-24 10:32N 52°28' E 004°38'0 0.0
2016-Jun-24 09:32N 52°28' E 004°38'0 0.0
2016-Jun-24 08:32N 52°28' E 004°38'0 0.0
2016-Jun-24 07:32N 52°28' E 004°38'0 0.0
2016-Jun-24 04:32N 52°28' E 004°38'0 0.0
2016-Jun-24 03:32N 52°28' E 004°38'0 0.0
2016-Jun-24 02:32N 52°28' E 004°38'0 0.0
2016-Jun-24 01:32N 52°28' E 004°38'0 0.0
2016-Jun-24 00:32N 52°28' E 004°38'2 1.6
2016-Jun-23 23:33N 52°28' E 004°35'6 5.8
2016-Jun-23 22:33N 52°28' E 004°26'1111.1
2016-Jun-23 21:33N 52°28' E 004°08'1211.7
2016-Jun-23 20:33N 52°25' E 003°49'1311.6
2016-Jun-23 19:26N 52°19' E 003°31'1112.2
2016-Jun-23 18:33N 52°12' E 003°17'1312.3
2016-Jun-23 17:29N 52°03' E 003°01'1613.1
2016-Jun-23 16:15N 51°51' E 002°44'1113.7
2016-Jun-23 15:24N 51°42' E 002°32'1113.3
2016-Jun-23 14:33N 51°33' E 002°21'1312.9
2016-Jun-23 13:33N 51°22' E 002°10'1312.6
2016-Jun-23 12:33N 51°12' E 001°59'1212.0
2016-Jun-23 11:33N 51°05' E 001°44'1110.7
2016-Jun-23 10:33N 50°56' E 001°33'10 9.5
2016-Jun-23 09:31N 50°48' E 001°24'10 9.8
2016-Jun-23 08:30N 50°40' E 001°15'31 9.5
2016-Jun-23 05:12N 50°26' E 000°31'6 9.6
2016-Jun-23 04:33N 50°24' E 000°22'10 9.7
2016-Jun-23 03:33N 50°22' E 000°07'10 9.9
2016-Jun-23 02:34N 50°19' W 000°08'2210.7
2016-Jun-23 00:29N 50°13' W 000°41'7514.2
2016-Jun-22 19:12N 49°54' W 002°34'813.0
2016-Jun-22 18:33N 49°51' W 002°47'1212.3
2016-Jun-22 17:33N 49°50' W 003°06'1211.6
2016-Jun-22 16:33N 49°49' W 003°24'1111.1
2016-Jun-22 15:33N 49°48' W 003°41'1210.8
2016-Jun-22 14:27N 49°47' W 003°59'1410.6
2016-Jun-22 13:09N 49°45' W 004°21'199 9.2
2016-Jun-21 15:33N 50°58' W 009°11'10 9.8
2016-Jun-21 14:34N 51°04' W 009°23'9 9.5
2016-Jun-21 13:33N 51°11' W 009°34'9 9.4
2016-Jun-21 12:34N 51°16' W 009°46'9 8.5
2016-Jun-21 11:33N 51°21' W 009°57'8 8.5
2016-Jun-21 10:33N 51°27' W 010°07'8 8.3
2016-Jun-21 09:34N 51°32' W 010°18'  
Track history (hours):
 
Tides and Currents Weather Stations Pressure Air Temp Water Temp Dewpoint Dewpoint Depression Visibility Wind Speed Wind Dir Waves Ship Positions

Avalon

Last reported at 2016-Jul-01 03:30 UTC. Time now 2016-Jul-01 13:33 UTC.
Position N 55°26' E 016°02'.

Length 89 m; draft 3.3 m.

Type: Cargo ship. MMSI: 246578000.

Date/timePositionNaut miles runAvg speedWind from/ knotsBaromVisibWave heightAir tempDewpointWater temp
2016-Jul-01 03:30N 55°26' E 016°02'1111.3
2016-Jul-01 02:33N 55°17' E 015°50'1111.3
2016-Jul-01 01:33N 55°08' E 015°39'1111.0
2016-Jul-01 00:33N 54°59' E 015°28'1110.9
2016-Jun-30 23:31N 54°50' E 015°17'70 9.6
2016-Jun-30 16:16N 53°48' E 014°21'811.0
2016-Jun-30 15:33N 53°42' E 014°29'1010.0
2016-Jun-30 14:33N 53°33' E 014°37'7 6.7
2016-Jun-30 13:31N 53°26' E 014°35'0 0.0
2016-Jun-30 12:31N 53°26' E 014°35'0 0.0
2016-Jun-30 11:31N 53°26' E 014°35'0 0.0
2016-Jun-30 10:31N 53°26' E 014°35'0 0.0
2016-Jun-30 09:31N 53°26' E 014°35'0 0.0
2016-Jun-30 08:31N 53°26' E 014°35'0 0.0
2016-Jun-30 07:31N 53°26' E 014°35'0 0.0
2016-Jun-30 06:31N 53°26' E 014°35'0 0.0
2016-Jun-30 05:31N 53°26' E 014°35'0 0.0
2016-Jun-30 04:28N 53°26' E 014°35'0 0.0
2016-Jun-30 03:31N 53°26' E 014°35'0 0.0
2016-Jun-30 02:31N 53°26' E 014°35'0 0.0
2016-Jun-30 01:31N 53°26' E 014°35'0 0.0
2016-Jun-30 00:31N 53°26' E 014°35'0 0.0
2016-Jun-29 23:31N 53°26' E 014°35'0 0.0
2016-Jun-29 22:31N 53°26' E 014°35'0 0.0
2016-Jun-29 21:31N 53°26' E 014°35'0 0.0
2016-Jun-29 20:31N 53°26' E 014°35'0 0.0
2016-Jun-29 19:31N 53°26' E 014°35'0 0.0
2016-Jun-29 18:31N 53°26' E 014°35'0 0.0
2016-Jun-29 17:31N 53°26' E 014°35'0 0.0
2016-Jun-29 16:31N 53°26' E 014°35'0 0.0
2016-Jun-29 15:31N 53°26' E 014°35'0 0.0
2016-Jun-29 14:31N 53°26' E 014°35'0 0.0
2016-Jun-29 13:31N 53°26' E 014°35'0 0.3
2016-Jun-29 12:33N 53°26' E 014°35'8 8.1
2016-Jun-29 11:33N 53°34' E 014°36'10 9.6
2016-Jun-29 10:33N 53°43' E 014°28'58 9.3
2016-Jun-29 04:22N 54°34' E 013°43'1810.2
2016-Jun-29 02:33N 54°50' E 013°28'1410.6
2016-Jun-29 01:14N 55°03' E 013°16'710.7
2016-Jun-29 00:33N 55°07' E 013°06'1110.7
2016-Jun-28 23:33N 55°15' E 012°52'10 9.7
2016-Jun-28 22:33N 55°20' E 012°38'1110.6
2016-Jun-28 21:33N 55°30' E 012°41'1110.8
2016-Jun-28 20:33N 55°41' E 012°41'1110.7
2016-Jun-28 19:33N 55°52' E 012°40'1010.3
2016-Jun-28 18:33N 56°02' E 012°38'1110.6
2016-Jun-28 17:33N 56°10' E 012°25'2110.6
2016-Jun-28 15:32N 56°31' E 012°34'1110.7
2016-Jun-28 14:32N 56°38' E 012°49'2 0.9
2016-Jun-28 12:08N 56°39' E 012°52'0 0.0
2016-Jun-28 11:32N 56°39' E 012°52'0 0.0
2016-Jun-28 10:20N 56°39' E 012°52'0 0.0
2016-Jun-28 09:26N 56°39' E 012°52'0 0.0
2016-Jun-28 08:32N 56°39' E 012°52'0 0.0
2016-Jun-28 06:08N 56°39' E 012°52'0 0.0
2016-Jun-28 04:20N 56°39' E 012°52'0 0.0
2016-Jun-28 02:20N 56°39' E 012°52'0 0.0
2016-Jun-28 01:26N 56°39' E 012°52'0 0.0
2016-Jun-28 00:14N 56°39' E 012°52'0 0.0
2016-Jun-27 23:32N 56°39' E 012°52'0 0.0
2016-Jun-27 22:32N 56°39' E 012°52'0 0.0
2016-Jun-27 21:32N 56°39' E 012°52'0 0.0
2016-Jun-27 20:20N 56°39' E 012°52'0 0.0
2016-Jun-27 19:26N 56°39' E 012°52'0 0.0
2016-Jun-27 18:32N 56°39' E 012°52'0 0.0
2016-Jun-27 17:32N 56°39' E 012°52'0 0.0
2016-Jun-27 16:32N 56°39' E 012°52'0 0.0
2016-Jun-27 13:32N 56°39' E 012°52'0 0.0
2016-Jun-27 12:08N 56°39' E 012°52'0 0.0
2016-Jun-27 11:14N 56°39' E 012°52'0 0.0
2016-Jun-27 09:27N 56°39' E 012°52'3 3.7
2016-Jun-27 08:33N 56°37' E 012°47'9 9.1
2016-Jun-27 07:33N 56°41' E 012°32'9 9.4
2016-Jun-27 06:33N 56°47' E 012°19'9 8.8
2016-Jun-27 05:33N 56°54' E 012°08'9 9.3
2016-Jun-27 04:33N 57°00' E 011°56'9 9.3
2016-Jun-27 03:33N 57°05' E 011°42'9 8.6
2016-Jun-27 02:33N 57°12' E 011°33'9 9.5
2016-Jun-27 01:33N 57°21' E 011°28'9 9.1
2016-Jun-27 00:33N 57°29' E 011°20'1010.0
2016-Jun-26 23:33N 57°36' E 011°06'10 9.8
2016-Jun-26 22:33N 57°42' E 010°52'23 9.7
2016-Jun-26 20:09N 57°41' E 010°09'259 9.0
2016-Jun-25 15:28N 54°18' E 005°20'8 9.2
2016-Jun-25 14:33N 54°11' E 005°13'1010.0
2016-Jun-25 13:33N 54°02' E 005°06'1010.2
2016-Jun-25 12:33N 53°52' E 004°60'1110.5
2016-Jun-25 11:28N 53°42' E 004°53'3311.4
2016-Jun-25 08:33N 53°11' E 004°33'1111.4
2016-Jun-25 07:33N 52°59' E 004°32'1212.0
2016-Jun-25 06:33N 52°47' E 004°31'1211.6
2016-Jun-25 05:33N 52°36' E 004°31'8 8.1
2016-Jun-25 04:34N 52°28' E 004°36'1 1.2
2016-Jun-25 03:33N 52°28' E 004°38'0 0.0
2016-Jun-25 02:32N 52°28' E 004°38'0 0.0
2016-Jun-25 01:32N 52°28' E 004°38'0 0.0
2016-Jun-25 00:32N 52°28' E 004°38'0 0.0
2016-Jun-24 23:32N 52°28' E 004°38'0 0.0
2016-Jun-24 22:32N 52°28' E 004°38'0 0.0
2016-Jun-24 21:32N 52°28' E 004°38'0 0.0
2016-Jun-24 20:32N 52°28' E 004°38'0 0.0
2016-Jun-24 19:32N 52°28' E 004°38'0 0.0
2016-Jun-24 18:32N 52°28' E 004°38'0 0.0
2016-Jun-24 17:32N 52°28' E 004°38'0 0.0
2016-Jun-24 16:32N 52°28' E 004°38'0 0.0
2016-Jun-24 15:32N 52°28' E 004°38'0 0.0
2016-Jun-24 14:32N 52°28' E 004°38'0 0.0
2016-Jun-24 13:32N 52°28' E 004°38'0 0.0
2016-Jun-24 12:32N 52°28' E 004°38'0 0.0
2016-Jun-24 11:32N 52°28' E 004°38'0 0.0
2016-Jun-24 10:32N 52°28' E 004°38'0 0.0
2016-Jun-24 09:32N 52°28' E 004°38'0 0.0
2016-Jun-24 08:32N 52°28' E 004°38'0 0.0
2016-Jun-24 07:32N 52°28' E 004°38'0 0.0
2016-Jun-24 04:32N 52°28' E 004°38'0 0.0
2016-Jun-24 03:32N 52°28' E 004°38'0 0.0
2016-Jun-24 02:32N 52°28' E 004°38'0 0.0
2016-Jun-24 01:32N 52°28' E 004°38'0 0.0
2016-Jun-24 00:32N 52°28' E 004°38'2 1.6
2016-Jun-23 23:33N 52°28' E 004°35'6 5.8
2016-Jun-23 22:33N 52°28' E 004°26'1111.1
2016-Jun-23 21:33N 52°28' E 004°08'1211.7
2016-Jun-23 20:33N 52°25' E 003°49'1311.6
2016-Jun-23 19:26N 52°19' E 003°31'1112.2
2016-Jun-23 18:33N 52°12' E 003°17'1312.3
2016-Jun-23 17:29N 52°03' E 003°01'1613.1
2016-Jun-23 16:15N 51°51' E 002°44'1113.7
2016-Jun-23 15:24N 51°42' E 002°32'1113.3
2016-Jun-23 14:33N 51°33' E 002°21'1312.9
2016-Jun-23 13:33N 51°22' E 002°10'1312.6
2016-Jun-23 12:33N 51°12' E 001°59'1212.0
2016-Jun-23 11:33N 51°05' E 001°44'1110.7
2016-Jun-23 10:33N 50°56' E 001°33'10 9.5
2016-Jun-23 09:31N 50°48' E 001°24'10 9.8
2016-Jun-23 08:30N 50°40' E 001°15'31 9.5
2016-Jun-23 05:12N 50°26' E 000°31'6 9.6
2016-Jun-23 04:33N 50°24' E 000°22'10 9.7
2016-Jun-23 03:33N 50°22' E 000°07'10 9.9
2016-Jun-23 02:34N 50°19' W 000°08'2210.7
2016-Jun-23 00:29N 50°13' W 000°41'7514.2
2016-Jun-22 19:12N 49°54' W 002°34'813.0
2016-Jun-22 18:33N 49°51' W 002°47'1212.3
2016-Jun-22 17:33N 49°50' W 003°06'1211.6
2016-Jun-22 16:33N 49°49' W 003°24'1111.1
2016-Jun-22 15:33N 49°48' W 003°41'1210.8
2016-Jun-22 14:27N 49°47' W 003°59'1410.6
2016-Jun-22 13:09N 49°45' W 004°21'199 9.2
2016-Jun-21 15:33N 50°58' W 009°11'10 9.8
2016-Jun-21 14:34N 51°04' W 009°23'9 9.5
2016-Jun-21 13:33N 51°11' W 009°34'9 9.4
2016-Jun-21 12:34N 51°16' W 009°46'9 8.5
2016-Jun-21 11:33N 51°21' W 009°57'8 8.5
2016-Jun-21 10:33N 51°27' W 010°07'8 8.3
2016-Jun-21 09:34N 51°32' W 010°18'  

Dump ship's entire track history